Time;durP1;ratioP1;P1;durP2;ratioP2;P2;SDS_P1;SDS_P2;PMS_P1;PMS_P2;Temp;Humidity;BMP_temperature;BMP_pressure;BME280_temperature;BME280_humidity;BME280_pressure;Samples;Min_cycle;Max_cycle;Signal;HPM_P1;HPM_P2
2023/10/11 00:00:33;;;;;;;10.13;7.40;;;11.30;99.90;;;;;;5018179;23;20524;-63
2023/10/11 00:03:05;;;;;;;7.00;6.30;;;11.30;99.90;;;;;;5014651;28;20486;-63
2023/10/11 00:05:39;;;;;;;9.50;5.87;;;11.30;99.90;;;;;;5014692;28;20828;-63
2023/10/11 00:08:08;;;;;;;7.47;5.80;;;11.30;99.90;;;;;;5014243;28;20445;-63
2023/10/11 00:10:42;;;;;;;10.60;7.40;;;11.30;99.90;;;;;;5000697;28;20890;-63
2023/10/11 00:13:15;;;;;;;9.23;6.87;;;11.30;99.90;;;;;;4995470;28;20453;-63
2023/10/11 00:15:44;;;;;;;6.80;5.93;;;11.30;99.90;;;;;;4995311;28;20461;-63
2023/10/11 00:18:12;;;;;;;9.00;5.73;;;11.30;99.90;;;;;;4995240;28;20541;-63
2023/10/11 00:20:50;;;;;;;10.00;7.40;;;11.30;99.90;;;;;;4995097;28;20469;-63
2023/10/11 00:23:19;;;;;;;11.37;6.37;;;11.30;99.90;;;;;;4995077;28;20441;-63
2023/10/11 00:25:49;;;;;;;8.83;7.87;;;11.30;99.90;;;;;;4995076;28;20842;-63
2023/10/11 00:28:18;;;;;;;8.77;5.80;;;11.30;99.90;;;;;;4994645;28;20464;-63
2023/10/11 00:30:47;;;;;;;8.93;5.70;;;11.20;99.90;;;;;;4995029;28;20482;-63
2023/10/11 00:33:14;;;;;;;8.70;5.53;;;11.30;99.90;;;;;;4994784;28;20442;-63
2023/10/11 00:35:47;;;;;;;9.13;5.87;;;11.20;99.90;;;;;;4995058;28;20462;-63
2023/10/11 00:38:18;;;;;;;8.20;6.47;;;11.20;99.90;;;;;;4994705;28;20457;-63
2023/10/11 00:40:46;;;;;;;8.97;6.43;;;11.20;99.90;;;;;;4994940;28;20474;-63
2023/10/11 00:43:16;;;;;;;7.63;6.23;;;11.20;99.90;;;;;;4994753;28;20490;-63
2023/10/11 00:45:44;;;;;;;9.80;6.17;;;11.20;99.90;;;;;;4988077;28;20835;-63
2023/10/11 00:48:14;;;;;;;11.23;6.23;;;11.20;99.90;;;;;;4975164;28;20445;-63
2023/10/11 00:50:40;;;;;;;6.90;5.20;;;11.20;99.90;;;;;;4969078;28;20534;-63
2023/10/11 00:53:09;;;;;;;8.83;5.73;;;11.20;99.90;;;;;;4955600;29;20456;-63
2023/10/11 00:55:36;;;;;;;7.30;6.33;;;11.20;99.90;;;;;;4956317;29;20892;-63
2023/10/11 00:58:04;;;;;;;7.07;5.57;;;11.10;99.90;;;;;;4957954;28;20539;-63
2023/10/11 01:00:36;;;;;;;9.33;7.17;;;11.20;99.90;;;;;;4974716;28;20479;-63
2023/10/11 01:03:05;;;;;;;9.00;6.40;;;11.20;99.90;;;;;;4975120;28;20494;-63
2023/10/11 01:05:33;;;;;;;11.33;6.83;;;11.10;99.90;;;;;;4974894;28;20458;-63
2023/10/11 01:08:00;;;;;;;7.90;5.07;;;11.10;99.90;;;;;;4974803;28;20986;-63
2023/10/11 01:10:29;;;;;;;8.93;6.67;;;11.10;99.90;;;;;;4974879;28;20472;-63
2023/10/11 01:12:57;;;;;;;8.13;6.33;;;11.10;99.90;;;;;;4975070;28;20482;-63
2023/10/11 01:15:24;;;;;;;8.67;5.50;;;11.10;99.90;;;;;;4974835;28;20456;-63
2023/10/11 01:17:53;;;;;;;8.40;5.87;;;11.00;99.90;;;;;;4974595;28;20448;-63
2023/10/11 01:20:21;;;;;;;9.37;6.97;;;11.00;99.90;;;;;;4971157;28;20535;-63
2023/10/11 01:22:49;;;;;;;6.77;5.23;;;11.00;99.90;;;;;;4954951;29;20492;-63
2023/10/11 01:25:18;;;;;;;7.93;6.00;;;11.00;99.90;;;;;;4954816;29;20489;-63
2023/10/11 01:27:45;;;;;;;10.43;5.93;;;10.90;99.90;;;;;;4954634;29;20460;-63
2023/10/11 01:30:12;;;;;;;6.57;5.67;;;10.90;99.90;;;;;;4955222;28;20856;-63
2023/10/11 01:32:41;;;;;;;9.90;6.70;;;10.90;99.90;;;;;;4955186;29;20527;-63
2023/10/11 01:35:10;;;;;;;7.03;5.40;;;10.90;99.90;;;;;;4955108;29;20468;-63
2023/10/11 01:37:41;;;;;;;7.57;6.47;;;10.80;99.90;;;;;;4954929;29;20832;-63
2023/10/11 01:40:11;;;;;;;6.00;5.30;;;10.90;99.90;;;;;;4955044;28;20469;-63
2023/10/11 01:42:41;;;;;;;9.73;5.67;;;10.80;99.90;;;;;;4955080;29;20480;-63
2023/10/11 01:45:09;;;;;;;11.80;6.30;;;10.80;99.90;;;;;;4954922;29;20849;-63
2023/10/11 01:47:35;;;;;;;12.63;6.90;;;10.80;99.90;;;;;;4953958;29;20463;-63
2023/10/11 01:50:02;;;;;;;7.43;6.67;;;10.90;99.90;;;;;;4954394;28;21009;-63
2023/10/11 01:52:34;;;;;;;6.83;5.63;;;10.80;99.90;;;;;;4969142;28;20514;-63
2023/10/11 01:55:01;;;;;;;8.10;6.30;;;10.80;99.90;;;;;;4973817;28;20462;-63
2023/10/11 01:57:29;;;;;;;8.40;6.83;;;10.80;99.90;;;;;;4973776;28;20450;-63
2023/10/11 01:59:56;;;;;;;6.23;5.60;;;10.80;99.90;;;;;;4973196;28;20571;-63
2023/10/11 02:02:27;;;;;;;8.37;5.57;;;10.80;99.90;;;;;;4973543;28;20488;-63
2023/10/11 02:04:57;;;;;;;9.97;5.60;;;10.80;99.90;;;;;;4973623;28;20486;-63
2023/10/11 02:07:24;;;;;;;5.20;4.67;;;10.80;99.90;;;;;;4973948;28;20444;-63
2023/10/11 02:09:51;;;;;;;7.67;5.30;;;10.80;99.90;;;;;;4973448;28;20476;-63
2023/10/11 02:12:18;;;;;;;6.43;5.90;;;10.80;99.90;;;;;;4973525;28;20465;-63
2023/10/11 02:14:47;;;;;;;9.03;6.40;;;10.80;99.90;;;;;;4973735;28;20475;-63
2023/10/11 02:17:17;;;;;;;5.77;5.20;;;10.80;99.90;;;;;;4973619;28;20480;-63
2023/10/11 02:19:45;;;;;;;5.87;5.10;;;10.80;99.90;;;;;;4973065;28;20998;-63
2023/10/11 02:22:12;;;;;;;10.57;6.60;;;10.80;99.90;;;;;;4973383;28;20490;-63
2023/10/11 02:24:38;;;;;;;8.57;5.90;;;10.80;99.90;;;;;;4973302;28;20455;-63
2023/10/11 02:27:17;;;;;;;10.03;8.93;;;10.80;99.90;;;;;;4973288;28;20451;-63
2023/10/11 02:29:46;;;;;;;7.50;6.70;;;10.70;99.90;;;;;;4972630;28;20474;-63
2023/10/11 02:32:15;;;;;;;6.97;5.80;;;10.70;99.90;;;;;;4973512;28;20448;-63
2023/10/11 02:34:46;;;;;;;8.10;5.90;;;10.70;99.90;;;;;;4973231;28;20451;-63
2023/10/11 02:37:16;;;;;;;8.20;6.07;;;10.70;99.90;;;;;;4972953;28;20458;-63
2023/10/11 02:39:44;;;;;;;8.87;5.60;;;10.70;99.90;;;;;;4972275;28;20570;-63
2023/10/11 02:42:10;;;;;;;6.33;5.47;;;10.60;99.90;;;;;;4973164;28;20491;-63
2023/10/11 02:44:39;;;;;;;6.03;5.40;;;10.60;99.90;;;;;;4973140;28;20489;-63
2023/10/11 02:47:06;;;;;;;7.83;5.50;;;10.60;99.90;;;;;;4973048;28;20447;-63
2023/10/11 02:49:35;;;;;;;7.27;5.87;;;10.60;99.90;;;;;;4972541;28;20467;-63
2023/10/11 02:52:06;;;;;;;8.57;6.57;;;10.50;99.90;;;;;;4972945;28;20541;-63
2023/10/11 02:54:38;;;;;;;9.27;6.07;;;10.50;99.90;;;;;;4973403;28;20474;-63
2023/10/11 02:57:06;;;;;;;14.00;5.97;;;10.50;99.90;;;;;;4973142;28;20460;-63
2023/10/11 02:59:34;;;;;;;8.77;5.63;;;10.50;99.90;;;;;;4972629;28;20493;-63
2023/10/11 03:02:01;;;;;;;10.63;5.87;;;10.50;99.90;;;;;;4972929;28;20530;-63
2023/10/11 03:04:29;;;;;;;7.57;5.90;;;10.40;99.90;;;;;;4972848;28;20526;-63
2023/10/11 03:07:00;;;;;;;9.00;5.90;;;10.40;99.90;;;;;;4973180;28;20467;-63
2023/10/11 03:09:27;;;;;;;9.33;5.10;;;10.40;99.90;;;;;;4973071;28;20476;-63
2023/10/11 03:11:56;;;;;;;6.90;6.20;;;10.40;99.90;;;;;;4973028;28;20459;-63
2023/10/11 03:14:28;;;;;;;7.40;6.27;;;10.40;99.90;;;;;;4954426;28;20463;-63
2023/10/11 03:17:05;;;;;;;9.60;5.53;;;10.40;99.90;;;;;;4954025;29;20535;-63
2023/10/11 03:19:34;;;;;;;9.17;7.00;;;10.40;99.90;;;;;;4953719;28;20824;-63
2023/10/11 03:22:04;;;;;;;9.20;6.17;;;10.40;99.90;;;;;;4953520;28;20541;-63
2023/10/11 03:24:33;;;;;;;7.70;5.23;;;10.40;99.90;;;;;;4957366;29;20460;-63
2023/10/11 03:27:00;;;;;;;7.10;5.33;;;10.30;99.90;;;;;;4957625;29;20510;-63
2023/10/11 03:29:30;;;;;;;9.10;5.97;;;10.40;99.90;;;;;;4957453;28;20482;-63
2023/10/11 03:31:57;;;;;;;9.93;6.00;;;10.30;99.90;;;;;;4957625;29;20539;-63
2023/10/11 03:34:24;;;;;;;9.80;6.67;;;10.30;99.90;;;;;;4967688;28;20534;-63
2023/10/11 03:36:59;;;;;;;7.40;6.77;;;10.40;99.90;;;;;;4958465;28;20890;-63
2023/10/11 03:39:39;;;;;;;8.53;5.50;;;10.40;99.90;;;;;;4957001;28;20477;-62
2023/10/11 03:42:12;;;;;;;10.70;6.80;;;10.40;99.90;;;;;;4957566;29;20519;-63
2023/10/11 03:44:40;;;;;;;12.00;6.80;;;10.40;99.90;;;;;;4957419;29;20522;-63
2023/10/11 03:47:08;;;;;;;9.63;5.73;;;10.30;99.90;;;;;;4957411;29;20458;-63
2023/10/11 03:49:50;;;;;;;7.60;5.43;;;10.30;99.90;;;;;;4956863;28;21075;-63
2023/10/11 03:52:22;;;;;;;9.03;6.03;;;10.30;99.90;;;;;;4957396;29;20480;-63
2023/10/11 03:54:54;;;;;;;9.47;6.27;;;10.30;99.90;;;;;;4957244;29;20955;-63
2023/10/11 03:57:22;;;;;;;6.00;5.07;;;10.30;99.90;;;;;;4956985;29;20459;-63
2023/10/11 03:59:51;;;;;;;12.13;6.67;;;10.30;99.90;;;;;;4956615;28;20494;-63
2023/10/11 04:02:19;;;;;;;6.77;6.13;;;10.30;99.90;;;;;;4956847;29;20859;-63
2023/10/11 04:04:48;;;;;;;6.87;5.77;;;10.30;99.90;;;;;;4956684;29;20459;-63
2023/10/11 04:07:16;;;;;;;6.30;5.13;;;10.30;99.90;;;;;;4957127;29;20866;-63
2023/10/11 04:09:46;;;;;;;9.90;6.23;;;10.20;99.90;;;;;;4956575;28;20472;-63
2023/10/11 04:12:14;;;;;;;12.10;6.83;;;10.20;99.90;;;;;;4956982;29;20843;-63
2023/10/11 04:14:45;;;;;;;9.77;6.10;;;10.20;99.90;;;;;;4956827;29;20448;-63
2023/10/11 04:17:25;;;;;;;7.07;6.03;;;10.20;99.90;;;;;;4956744;29;20485;-63
2023/10/11 04:19:54;;;;;;;8.37;5.50;;;10.10;99.90;;;;;;4955881;28;20482;-63
2023/10/11 04:22:24;;;;;;;7.30;5.20;;;10.10;99.90;;;;;;4957029;29;20484;-63
2023/10/11 04:24:53;;;;;;;8.40;5.73;;;10.10;99.90;;;;;;4956567;29;20835;-63
2023/10/11 04:30:27;;;;;;;6.53;5.30;;;10.00;99.90;;;;;;4955670;28;20462;-63
2023/10/11 04:32:56;;;;;;;10.30;6.10;;;10.00;99.90;;;;;;4956790;28;20870;-63
2023/10/11 04:35:25;;;;;;;7.90;5.80;;;10.00;99.90;;;;;;4956534;29;20474;-63
2023/10/11 04:37:54;;;;;;;7.20;5.13;;;10.00;99.90;;;;;;4955909;29;20968;-63
2023/10/11 04:40:39;;;;;;;7.70;5.50;;;9.90;99.90;;;;;;4956442;28;20476;-63
2023/10/11 04:43:20;;;;;;;10.60;6.00;;;9.90;99.90;;;;;;4956570;29;20491;-63
2023/10/11 04:45:48;;;;;;;6.97;5.67;;;9.90;99.90;;;;;;4956457;29;20456;-63
2023/10/11 04:48:18;;;;;;;11.63;7.27;;;9.90;99.90;;;;;;4955915;29;20462;-63
2023/10/11 04:50:47;;;;;;;8.00;7.20;;;9.80;99.90;;;;;;4956313;28;20510;-63
2023/10/11 04:53:18;;;;;;;11.00;7.53;;;9.80;99.90;;;;;;4956560;29;20451;-63
2023/10/11 04:55:47;;;;;;;7.40;6.70;;;9.80;99.90;;;;;;4956363;29;20482;-63
2023/10/11 04:58:40;;;;;;;6.47;5.80;;;9.70;99.90;;;;;;4955913;29;20541;-63
2023/10/11 05:01:08;;;;;;;8.40;6.97;;;9.70;99.90;;;;;;4955343;28;20875;-63
2023/10/11 05:03:37;;;;;;;8.80;7.40;;;9.70;99.90;;;;;;4955976;29;20539;-63
2023/10/11 05:06:13;;;;;;;9.73;6.80;;;9.70;99.90;;;;;;4955534;29;20824;-63
2023/10/11 05:08:54;;;;;;;8.40;6.40;;;9.70;99.90;;;;;;4955539;29;20456;-63
2023/10/11 05:11:32;;;;;;;12.07;7.00;;;9.70;99.90;;;;;;4955184;29;20459;-63
2023/10/11 05:14:07;;;;;;;6.97;5.80;;;9.60;99.90;;;;;;4955207;29;20452;-63
2023/10/11 05:16:37;;;;;;;10.87;6.60;;;9.60;99.90;;;;;;4955916;29;20994;-63
2023/10/11 05:19:05;;;;;;;9.33;5.90;;;9.60;99.90;;;;;;4955261;28;20467;-63
2023/10/11 05:21:38;;;;;;;12.50;6.10;;;9.60;99.90;;;;;;4955655;29;20466;-63
2023/10/11 05:24:14;;;;;;;13.30;6.30;;;9.60;99.90;;;;;;4955841;29;20866;-63
2023/10/11 05:26:47;;;;;;;10.80;7.20;;;9.60;99.90;;;;;;4955714;29;20534;-63
2023/10/11 05:29:24;;;;;;;8.20;5.37;;;9.50;99.90;;;;;;4955218;28;20904;-63
2023/10/11 05:32:19;;;;;;;7.47;6.00;;;9.50;99.90;;;;;;4955471;29;20474;-63
2023/10/11 05:34:50;;;;;;;12.93;6.83;;;9.50;99.90;;;;;;4955327;29;20452;-64
2023/10/11 05:51:00;;;;;;;11.90;9.80;;;9.40;99.90;;;;;;4955863;28;20867;-63
2023/10/11 05:53:28;;;;;;;6.53;5.70;;;9.40;99.90;;;;;;4955313;29;20544;-63
2023/10/11 05:55:54;;;;;;;10.43;7.03;;;9.40;99.90;;;;;;4955002;29;20545;-63
2023/10/11 05:58:21;;;;;;;8.90;7.43;;;9.40;99.90;;;;;;4955015;29;20456;-63
2023/10/11 06:00:53;;;;;;;8.37;7.23;;;9.40;99.90;;;;;;4954965;28;20487;-63
2023/10/11 06:03:22;;;;;;;11.87;7.60;;;9.40;99.90;;;;;;4954977;29;20494;-63
2023/10/11 06:05:51;;;;;;;12.00;6.83;;;9.40;99.90;;;;;;4955282;29;20492;-63
2023/10/11 06:08:18;;;;;;;7.03;5.53;;;9.40;99.90;;;;;;4954426;29;20466;-63
2023/10/11 06:10:45;;;;;;;8.63;6.70;;;9.30;99.90;;;;;;4954897;28;21061;-63
2023/10/11 06:13:15;;;;;;;9.87;6.03;;;9.40;99.90;;;;;;4954957;29;20444;-63
2023/10/11 06:15:45;;;;;;;11.70;8.30;;;9.40;99.90;;;;;;4955055;29;20455;-63
2023/10/11 06:21:01;;;;;;;12.73;6.80;;;9.40;99.90;;;;;;4953757;28;20473;-63
2023/10/11 06:23:30;;;;;;;8.23;6.10;;;9.40;99.90;;;;;;4954495;29;20583;-63
2023/10/11 06:25:59;;;;;;;9.83;6.70;;;9.40;99.90;;;;;;4954290;29;21033;-63
2023/10/11 06:28:30;;;;;;;8.47;6.10;;;9.40;99.90;;;;;;4953951;29;20455;-63
2023/10/11 06:31:01;;;;;;;9.37;7.17;;;9.40;99.90;;;;;;4954664;28;20534;-63
2023/10/11 06:33:34;;;;;;;9.63;8.73;;;9.40;99.90;;;;;;4954480;29;20459;-63
2023/10/11 06:36:00;;;;;;;9.20;6.70;;;9.50;99.90;;;;;;4953931;29;20555;-63
2023/10/11 06:38:37;;;;;;;6.60;5.50;;;9.50;99.90;;;;;;4954096;29;20452;-63
2023/10/11 06:43:47;;;;;;;12.67;6.80;;;9.50;99.90;;;;;;4952997;29;20545;-63
2023/10/11 06:46:14;;;;;;;8.93;6.67;;;9.60;99.90;;;;;;4954385;29;20487;-63
2023/10/11 06:48:42;;;;;;;11.20;7.17;;;9.60;99.90;;;;;;4953761;29;20454;-63
2023/10/11 06:51:13;;;;;;;10.57;6.10;;;9.60;99.90;;;;;;4953763;28;20475;-63
2023/10/11 06:53:42;;;;;;;9.73;6.13;;;9.70;99.90;;;;;;4954087;29;20454;-63
2023/10/11 06:56:16;;;;;;;11.73;7.00;;;9.70;99.90;;;;;;4953852;28;20463;-63
2023/10/11 06:58:45;;;;;;;11.03;6.50;;;9.80;99.90;;;;;;4953528;28;20456;-63
2023/10/11 07:01:13;;;;;;;7.37;6.57;;;9.80;99.90;;;;;;4960661;28;20951;-63
2023/10/11 07:03:42;;;;;;;8.60;6.43;;;9.90;99.90;;;;;;4963249;28;20526;-63
2023/10/11 07:06:12;;;;;;;8.33;7.40;;;10.00;99.90;;;;;;4970615;28;20996;-63
2023/10/11 07:08:49;;;;;;;12.93;7.30;;;10.00;99.90;;;;;;4980214;28;20455;-63
2023/10/11 07:11:40;;;;;;;14.10;6.40;;;10.10;99.90;;;;;;4969772;28;21060;-63
2023/10/11 07:14:14;;;;;;;9.13;5.93;;;10.10;99.90;;;;;;4972745;28;20462;-63
2023/10/11 07:16:44;;;;;;;8.87;7.67;;;10.20;99.90;;;;;;4960718;28;21051;-63
2023/10/11 07:19:15;;;;;;;8.10;6.50;;;10.20;99.90;;;;;;4953079;28;20467;-63
2023/10/11 07:21:51;;;;;;;9.20;6.00;;;10.30;99.90;;;;;;4963257;28;20460;-63
2023/10/11 07:24:38;;;;;;;8.17;6.30;;;10.30;99.90;;;;;;4961500;28;20540;-63
2023/10/11 07:27:14;;;;;;;9.93;6.90;;;10.40;99.90;;;;;;4965919;28;20467;-63
2023/10/11 07:29:42;;;;;;;7.17;5.13;;;10.50;99.90;;;;;;4967994;28;20553;-63
2023/10/11 07:32:10;;;;;;;11.00;6.43;;;10.50;99.90;;;;;;4959266;28;20456;-63
2023/10/11 07:34:40;;;;;;;9.50;5.60;;;10.60;99.90;;;;;;4969286;28;20465;-63
2023/10/11 07:37:07;;;;;;;7.50;6.03;;;10.60;99.90;;;;;;4962779;28;20450;-63
2023/10/11 07:39:34;;;;;;;8.27;5.33;;;10.70;99.90;;;;;;4968767;28;20858;-63
2023/10/11 07:42:04;;;;;;;10.10;6.80;;;10.80;99.90;;;;;;4953531;28;20453;-63
2023/10/11 07:44:31;;;;;;;9.67;7.77;;;10.90;99.90;;;;;;4964597;28;21033;-63
2023/10/11 07:46:58;;;;;;;7.90;6.30;;;11.00;99.90;;;;;;4969145;28;20455;-63
2023/10/11 07:49:25;;;;;;;7.77;6.77;;;11.00;99.90;;;;;;4966634;28;20506;-63
2023/10/11 07:51:58;;;;;;;9.17;7.27;;;11.10;99.90;;;;;;4971160;28;20452;-63
2023/10/11 07:54:26;;;;;;;9.80;7.37;;;11.20;99.90;;;;;;4960932;28;20537;-63
2023/10/11 07:56:57;;;;;;;13.60;7.30;;;11.30;99.90;;;;;;4961064;28;20451;-63
2023/10/11 07:59:26;;;;;;;12.07;8.33;;;11.40;99.90;;;;;;4959680;28;20529;-63
2023/10/11 08:01:54;;;;;;;13.20;6.80;;;11.50;99.90;;;;;;4971467;28;20900;-63
2023/10/11 08:04:27;;;;;;;9.37;7.27;;;11.60;99.90;;;;;;4975070;28;20897;-63
2023/10/11 08:07:00;;;;;;;9.50;7.30;;;11.70;99.90;;;;;;4975207;28;20806;-64
2023/10/11 08:09:28;;;;;;;10.30;6.60;;;11.70;99.90;;;;;;4971335;28;20482;-63
2023/10/11 08:11:57;;;;;;;12.40;7.00;;;11.90;99.90;;;;;;4961196;28;20462;-63
2023/10/11 08:14:28;;;;;;;11.13;7.40;;;12.00;99.90;;;;;;4972977;28;20458;-63
2023/10/11 08:16:59;;;;;;;8.53;7.30;;;12.10;99.90;;;;;;4992728;28;20451;-63
2023/10/11 08:19:26;;;;;;;9.17;8.27;;;12.20;99.90;;;;;;4973442;28;20481;-63
2023/10/11 08:21:57;;;;;;;8.50;7.70;;;12.30;99.90;;;;;;4978462;28;20532;-64
2023/10/11 08:24:27;;;;;;;9.20;7.10;;;12.40;99.90;;;;;;4969942;28;20482;-64
2023/10/11 08:27:05;;;;;;;10.13;7.40;;;12.50;99.90;;;;;;4977233;28;20459;-64
2023/10/11 08:29:32;;;;;;;8.97;6.20;;;12.60;99.90;;;;;;4973756;28;20495;-64
2023/10/11 08:31:59;;;;;;;6.83;6.00;;;12.80;99.90;;;;;;4989963;28;20975;-63
2023/10/11 08:34:27;;;;;;;9.30;7.63;;;12.90;99.90;;;;;;4962475;28;20526;-64
2023/10/11 08:36:55;;;;;;;8.43;7.63;;;13.10;99.90;;;;;;4990063;28;20542;-64
2023/10/11 08:39:27;;;;;;;9.50;7.30;;;13.20;99.90;;;;;;4982460;28;20465;-64
2023/10/11 08:41:58;;;;;;;13.43;8.37;;;13.40;99.90;;;;;;4989919;28;20897;-64
2023/10/11 08:44:29;;;;;;;7.63;6.90;;;13.50;99.90;;;;;;4977932;28;20907;-64
2023/10/11 08:46:58;;;;;;;12.43;6.17;;;13.70;99.90;;;;;;4986698;28;20472;-63
2023/10/11 08:49:25;;;;;;;13.63;8.10;;;13.90;99.90;;;;;;4985660;28;20479;-64
2023/10/11 08:51:56;;;;;;;7.77;6.83;;;14.00;99.90;;;;;;4978703;28;21008;-64
2023/10/11 08:54:26;;;;;;;7.90;6.07;;;14.20;99.90;;;;;;4973327;28;20463;-63
2023/10/11 08:56:57;;;;;;;8.40;7.00;;;14.40;99.90;;;;;;4973562;28;20458;-64
2023/10/11 08:59:26;;;;;;;10.07;6.97;;;14.60;99.90;;;;;;4975143;28;20486;-64
2023/10/11 09:01:53;;;;;;;8.37;6.10;;;14.70;99.90;;;;;;4990033;28;20452;-64
2023/10/11 09:04:26;;;;;;;9.43;6.67;;;14.90;99.90;;;;;;4978500;28;20575;-64
2023/10/11 09:06:57;;;;;;;8.27;6.03;;;15.10;99.90;;;;;;4984471;28;20451;-64
2023/10/11 09:09:39;;;;;;;13.10;6.87;;;15.30;99.90;;;;;;4987040;28;20513;-64
2023/10/11 09:12:27;;;;;;;8.57;6.27;;;15.50;99.90;;;;;;4977390;28;20465;-64
2023/10/11 09:14:59;;;;;;;9.27;6.27;;;15.70;99.90;;;;;;4984241;28;20448;-64
2023/10/11 09:17:27;;;;;;;10.53;7.97;;;16.00;99.90;;;;;;4987218;28;20452;-64
2023/10/11 09:19:57;;;;;;;8.60;6.37;;;16.30;99.90;;;;;;4975804;28;20461;-64
2023/10/11 09:22:25;;;;;;;12.60;6.37;;;16.60;99.90;;;;;;4987856;28;21033;-64
2023/10/11 09:25:06;;;;;;;8.57;7.27;;;16.90;99.90;;;;;;4967946;28;20582;-64
2023/10/11 09:27:48;;;;;;;7.30;5.67;;;17.20;99.90;;;;;;4982562;28;20498;-64
2023/10/11 09:30:19;;;;;;;8.07;6.17;;;17.60;99.90;;;;;;4975564;28;20977;-64
2023/10/11 09:32:49;;;;;;;9.90;7.43;;;18.00;99.90;;;;;;4985232;28;20456;-63
2023/10/11 09:35:23;;;;;;;9.70;5.53;;;18.20;99.90;;;;;;4985563;28;20454;-64
2023/10/11 09:37:53;;;;;;;5.70;5.13;;;18.50;99.90;;;;;;4976216;28;20502;-64
2023/10/11 09:40:25;;;;;;;8.50;6.30;;;18.80;99.90;;;;;;4988565;28;20474;-64
2023/10/11 09:42:57;;;;;;;5.90;4.70;;;19.00;99.90;;;;;;4982072;28;20443;-64
2023/10/11 09:45:28;;;;;;;8.70;5.53;;;19.20;99.90;;;;;;4979534;28;20563;-63
2023/10/11 09:47:56;;;;;;;9.67;8.10;;;19.50;99.90;;;;;;4989028;28;20474;-64
2023/10/11 09:50:24;;;;;;;8.60;5.80;;;19.70;99.90;;;;;;4977953;28;20455;-64
2023/10/11 09:52:52;;;;;;;6.87;5.43;;;20.00;99.90;;;;;;4983862;28;20533;-64
2023/10/11 09:55:31;;;;;;;7.50;6.90;;;20.10;99.90;;;;;;4979929;28;21036;-65
2023/10/11 09:58:05;;;;;;;8.03;5.40;;;20.30;99.90;;;;;;4984673;28;20465;-65
2023/10/11 10:00:41;;;;;;;9.17;5.60;;;20.50;99.90;;;;;;4986082;28;20476;-64
2023/10/11 10:03:13;;;;;;;11.60;5.77;;;20.80;99.90;;;;;;4983957;28;20883;-64
2023/10/11 10:06:18;;;;;;;8.03;5.67;;;21.00;99.90;;;;;;4977129;28;20517;-64
2023/10/11 10:08:50;;;;;;;9.90;5.60;;;21.20;99.90;;;;;;4972245;28;20474;-64
2023/10/11 10:11:19;;;;;;;6.43;5.50;;;21.40;99.90;;;;;;4978812;28;20524;-64
2023/10/11 10:14:22;;;;;;;7.47;5.17;;;21.50;99.90;;;;;;4975334;28;20464;-65
2023/10/11 10:17:10;;;;;;;6.87;5.00;;;21.70;99.50;;;;;;4969952;28;20459;-64
2023/10/11 10:19:39;;;;;;;8.73;5.00;;;21.90;98.10;;;;;;4979246;28;20484;-64
2023/10/11 10:22:11;;;;;;;8.73;5.73;;;22.10;98.90;;;;;;4978210;28;20495;-64
2023/10/11 10:24:41;;;;;;;9.70;6.03;;;22.30;97.70;;;;;;4981145;28;20498;-64
2023/10/11 10:27:40;;;;;;;8.07;4.87;;;22.50;97.40;;;;;;4980757;28;20919;-64
2023/10/11 10:30:16;;;;;;;9.23;5.30;;;22.60;97.00;;;;;;4971558;28;20478;-64
2023/10/11 10:33:18;;;;;;;7.60;5.43;;;22.70;96.10;;;;;;4983349;28;21084;-64
2023/10/11 10:35:45;;;;;;;8.60;4.90;;;23.00;96.30;;;;;;4971967;28;20452;-64
2023/10/11 10:38:11;;;;;;;6.50;5.30;;;23.20;96.00;;;;;;4961109;28;20470;-64
2023/10/11 10:40:42;;;;;;;10.13;5.43;;;23.30;95.90;;;;;;4984616;28;20464;-64
2023/10/11 10:43:20;;;;;;;7.03;5.07;;;23.50;95.80;;;;;;4975953;28;20461;-64
2023/10/11 10:45:49;;;;;;;7.00;4.90;;;23.70;95.50;;;;;;4971692;28;21023;-65
2023/10/11 10:48:18;;;;;;;11.23;6.50;;;23.80;95.10;;;;;;4987269;28;20483;-65
2023/10/11 10:50:52;;;;;;;9.03;5.13;;;23.90;94.30;;;;;;4974240;28;20483;-64
2023/10/11 10:53:20;;;;;;;9.60;4.93;;;24.10;94.50;;;;;;4975749;28;20460;-65
2023/10/11 10:55:47;;;;;;;6.10;4.77;;;24.20;93.80;;;;;;4978532;28;20463;-65
2023/10/11 10:58:17;;;;;;;12.37;6.10;;;24.30;92.80;;;;;;4985758;28;20546;-65
2023/10/11 11:00:47;;;;;;;7.90;5.03;;;24.30;92.20;;;;;;4974570;28;20506;-65
2023/10/11 11:03:23;;;;;;;9.27;4.87;;;24.50;92.60;;;;;;4974900;28;20957;-64
2023/10/11 11:05:58;;;;;;;11.10;5.23;;;24.70;92.10;;;;;;4976665;28;20884;-64
2023/10/11 11:08:27;;;;;;;7.47;5.30;;;24.80;91.80;;;;;;4982909;28;20535;-65
2023/10/11 11:10:55;;;;;;;8.70;5.33;;;24.90;92.10;;;;;;4967649;28;20505;-65
2023/10/11 11:13:22;;;;;;;10.87;6.47;;;25.00;91.70;;;;;;4972769;28;21050;-64
2023/10/11 11:15:55;;;;;;;10.93;5.60;;;25.10;91.30;;;;;;4983316;28;20472;-65
2023/10/11 11:18:32;;;;;;;6.33;5.17;;;25.20;91.20;;;;;;4986029;28;20472;-65
2023/10/11 11:21:17;;;;;;;8.10;4.93;;;25.30;90.90;;;;;;4977664;28;20541;-65
2023/10/11 11:23:44;;;;;;;6.03;4.63;;;25.30;90.80;;;;;;4979814;28;20504;-64
2023/10/11 11:26:15;;;;;;;7.80;4.93;;;25.40;90.50;;;;;;4964429;28;20531;-65
2023/10/11 11:28:42;;;;;;;13.23;5.90;;;25.50;89.60;;;;;;4971416;28;20552;-65
2023/10/11 11:31:13;;;;;;;13.77;6.00;;;25.50;89.50;;;;;;4976136;28;20851;-65
2023/10/11 11:36:56;;;;;;;5.70;5.03;;;25.70;90.10;;;;;;5082418;28;20528;-63
2023/10/11 11:39:26;;;;;;;9.40;5.03;;;25.80;89.60;;;;;;5072963;28;20843;-63
2023/10/11 11:41:55;;;;;;;13.13;6.30;;;26.00;88.80;;;;;;5067589;28;20573;-63
2023/10/11 11:44:21;;;;;;;12.27;4.73;;;26.10;87.80;;;;;;5067421;28;20478;-64
2023/10/11 11:46:50;;;;;;;5.83;5.17;;;26.20;87.70;;;;;;5067220;28;20439;-63
2023/10/11 11:49:20;;;;;;;8.60;5.03;;;26.30;86.70;;;;;;5066831;28;20552;-63
2023/10/11 11:51:50;;;;;;;8.37;5.50;;;26.30;85.10;;;;;;5067783;28;20508;-63
2023/10/11 11:54:19;;;;;;;7.77;4.60;;;26.40;85.90;;;;;;5065959;28;20977;-63
2023/10/11 11:56:46;;;;;;;15.07;6.97;;;26.50;85.30;;;;;;5067516;28;20537;-63
2023/10/11 11:59:17;;;;;;;10.10;4.60;;;26.50;82.70;;;;;;5067108;28;20288;-63
2023/10/11 12:01:49;;;;;;;8.73;5.20;;;26.60;83.50;;;;;;5067591;28;20456;-63
2023/10/11 12:04:20;;;;;;;12.38;5.28;;;26.70;83.80;;;;;;5067262;28;20448;-63
2023/10/11 12:06:49;;;;;;;8.83;5.17;;;26.80;81.80;;;;;;5067241;28;20288;-64
2023/10/11 12:09:21;;;;;;;10.23;5.57;;;27.00;82.80;;;;;;5067002;28;20456;-63
2023/10/11 12:11:50;;;;;;;7.87;5.10;;;27.00;81.90;;;;;;5067114;28;20459;-63
2023/10/11 12:14:17;;;;;;;7.37;5.10;;;27.00;81.40;;;;;;5066566;28;20499;-63
2023/10/11 12:16:44;;;;;;;11.23;5.80;;;27.10;81.70;;;;;;5067205;28;20511;-63
2023/10/11 12:19:13;;;;;;;9.13;4.83;;;27.20;80.30;;;;;;5068597;28;20984;-63
2023/10/11 12:21:40;;;;;;;8.73;4.72;;;27.40;81.70;;;;;;5085734;28;20447;-64
2023/10/11 12:24:11;;;;;;;8.83;5.03;;;27.60;77.90;;;;;;5072093;28;20294;-63
2023/10/11 12:26:42;;;;;;;6.90;5.50;;;27.90;79.20;;;;;;5076093;28;20938;-63
2023/10/11 12:29:14;;;;;;;8.83;5.30;;;28.10;77.20;;;;;;5066652;28;21081;-63
2023/10/11 12:31:41;;;;;;;8.13;4.40;;;28.40;78.40;;;;;;5066861;28;20851;-63
2023/10/11 12:34:09;;;;;;;6.53;5.13;;;28.50;77.10;;;;;;5066207;28;20445;-63
2023/10/11 12:36:38;;;;;;;8.60;4.80;;;28.60;76.60;;;;;;5080502;28;20563;-63
2023/10/11 12:39:08;;;;;;;11.43;5.60;;;28.60;75.10;;;;;;5086317;28;20453;-63
2023/10/11 12:41:36;;;;;;;11.73;4.87;;;28.60;72.50;;;;;;5087070;28;20594;-63
2023/10/11 12:44:04;;;;;;;6.43;5.00;;;28.60;74.20;;;;;;5086945;28;20450;-63
2023/10/11 12:46:30;;;;;;;11.60;5.33;;;28.60;72.50;;;;;;5082561;28;20529;-64
2023/10/11 12:48:57;;;;;;;7.53;4.70;;;28.50;72.90;;;;;;5056577;28;20445;-63
2023/10/11 12:51:24;;;;;;;5.40;3.73;;;28.40;72.10;;;;;;5053058;28;20447;-63
2023/10/11 12:53:54;;;;;;;9.10;5.73;;;28.30;73.90;;;;;;5053004;28;20900;-63
2023/10/11 12:56:23;;;;;;;8.93;4.30;;;28.40;74.10;;;;;;5053082;28;20510;-63
2023/10/11 12:58:53;;;;;;;6.73;4.30;;;28.30;71.50;;;;;;5052656;28;20884;-63
2023/10/11 13:01:36;;;;;;;9.07;6.37;;;28.30;73.50;;;;;;5052712;28;20472;-65
2023/10/11 13:04:08;;;;;;;10.75;4.53;;;28.20;72.30;;;;;;5052920;28;20448;-63
2023/10/11 13:06:37;;;;;;;7.15;4.82;;;28.10;71.00;;;;;;5052854;28;20831;-63
2023/10/11 13:09:04;;;;;;;11.30;4.77;;;28.20;72.60;;;;;;5052494;28;20206;-63
2023/10/11 13:11:32;;;;;;;6.40;4.93;;;28.30;73.90;;;;;;5052927;28;20445;-63
2023/10/11 13:14:05;;;;;;;10.33;6.37;;;28.50;73.10;;;;;;5052810;28;20442;-63
2023/10/11 13:16:33;;;;;;;10.13;5.40;;;28.60;72.30;;;;;;5052461;28;20577;-63
2023/10/11 13:19:00;;;;;;;5.70;3.87;;;28.80;72.00;;;;;;5052786;28;20458;-63
2023/10/11 13:21:33;;;;;;;5.43;4.30;;;29.00;73.40;;;;;;5052919;28;20452;-63
2023/10/11 13:24:08;;;;;;;7.97;5.37;;;29.30;69.10;;;;;;5053019;28;20523;-63
2023/10/11 13:26:42;;;;;;;9.27;4.60;;;29.40;68.40;;;;;;5051204;28;20456;-64
2023/10/11 13:29:09;;;;;;;9.23;4.33;;;29.70;67.90;;;;;;5051725;28;20509;-63